sensor_id;sensor_type;location;lat;lon;timestamp;pressure;altitude;pressure_sealevel;temperature;humidity
78488;BME280;67885;49.758;9.582;2024-02-04T00:00:44;100134.91;;;12.79;57.58
78488;BME280;67885;49.758;9.582;2024-02-04T00:03:12;100142.16;;;12.77;57.65
78488;BME280;67885;49.758;9.582;2024-02-04T00:05:39;100138.03;;;12.73;57.41
78488;BME280;67885;49.758;9.582;2024-02-04T00:08:05;100139.72;;;12.74;57.57
78488;BME280;67885;49.758;9.582;2024-02-04T00:10:32;100130.66;;;12.76;57.38
78488;BME280;67885;49.758;9.582;2024-02-04T00:12:59;100126.22;;;12.77;57.58
78488;BME280;67885;49.758;9.582;2024-02-04T00:15:26;100136.72;;;12.78;57.03
78488;BME280;67885;49.758;9.582;2024-02-04T00:17:53;100135.88;;;12.78;57.60
78488;BME280;67885;49.758;9.582;2024-02-04T00:20:20;100129.81;;;12.76;57.99
78488;BME280;67885;49.758;9.582;2024-02-04T00:22:49;100131.53;;;12.77;57.99
78488;BME280;67885;49.758;9.582;2024-02-04T00:25:16;100129.59;;;12.79;57.68
78488;BME280;67885;49.758;9.582;2024-02-04T00:27:44;100124.28;;;12.79;57.96
78488;BME280;67885;49.758;9.582;2024-02-04T00:30:11;100126.94;;;12.79;57.60
78488;BME280;67885;49.758;9.582;2024-02-04T00:32:38;100124.19;;;12.80;57.74
78488;BME280;67885;49.758;9.582;2024-02-04T00:35:05;100128.63;;;12.80;57.86
78488;BME280;67885;49.758;9.582;2024-02-04T00:37:33;100129.59;;;12.79;58.51
78488;BME280;67885;49.758;9.582;2024-02-04T00:40:00;100114.25;;;12.82;58.01
78488;BME280;67885;49.758;9.582;2024-02-04T00:42:26;100111.72;;;12.81;57.92
78488;BME280;67885;49.758;9.582;2024-02-04T00:44:53;100120.66;;;12.80;57.85
78488;BME280;67885;49.758;9.582;2024-02-04T00:47:19;100112.16;;;12.75;57.85
78488;BME280;67885;49.758;9.582;2024-02-04T00:49:46;100122.69;;;12.76;58.02
78488;BME280;67885;49.758;9.582;2024-02-04T00:52:12;100123.78;;;12.74;58.11
78488;BME280;67885;49.758;9.582;2024-02-04T00:54:40;100117.47;;;12.75;57.79
78488;BME280;67885;49.758;9.582;2024-02-04T00:57:07;100120.16;;;12.75;58.47
78488;BME280;67885;49.758;9.582;2024-02-04T00:59:33;100124.97;;;12.70;57.79
78488;BME280;67885;49.758;9.582;2024-02-04T01:02:00;100116.25;;;12.68;58.37
78488;BME280;67885;49.758;9.582;2024-02-04T01:04:26;100114.66;;;12.65;58.13
78488;BME280;67885;49.758;9.582;2024-02-04T01:06:54;100110.19;;;12.65;57.78
78488;BME280;67885;49.758;9.582;2024-02-04T01:09:20;100102.69;;;12.59;58.59
78488;BME280;67885;49.758;9.582;2024-02-04T01:11:48;100101.72;;;12.60;58.28
78488;BME280;67885;49.758;9.582;2024-02-04T01:14:15;100101.25;;;12.67;58.49
78488;BME280;67885;49.758;9.582;2024-02-04T01:16:41;100116.88;;;12.71;57.89
78488;BME280;67885;49.758;9.582;2024-02-04T01:19:08;100107.72;;;12.75;57.86
78488;BME280;67885;49.758;9.582;2024-02-04T01:21:34;100097.69;;;12.79;57.90
78488;BME280;67885;49.758;9.582;2024-02-04T01:24:01;100104.69;;;12.80;58.13
78488;BME280;67885;49.758;9.582;2024-02-04T01:26:28;100096.00;;;12.78;57.82
78488;BME280;67885;49.758;9.582;2024-02-04T01:28:55;100093.94;;;12.81;57.80
78488;BME280;67885;49.758;9.582;2024-02-04T01:31:22;100076.91;;;12.73;57.52
78488;BME280;67885;49.758;9.582;2024-02-04T01:33:49;100094.06;;;12.80;57.65
78488;BME280;67885;49.758;9.582;2024-02-04T01:36:15;100099.50;;;12.78;57.90
78488;BME280;67885;49.758;9.582;2024-02-04T01:38:42;100098.66;;;12.78;57.87
78488;BME280;67885;49.758;9.582;2024-02-04T01:41:08;100101.09;;;12.81;57.88
78488;BME280;67885;49.758;9.582;2024-02-04T01:43:35;100097.59;;;12.80;57.51
78488;BME280;67885;49.758;9.582;2024-02-04T01:46:03;100085.25;;;12.79;58.10
78488;BME280;67885;49.758;9.582;2024-02-04T01:48:30;100083.69;;;12.77;58.00
78488;BME280;67885;49.758;9.582;2024-02-04T01:50:59;100028.66;;;12.30;58.08
78488;BME280;67885;49.758;9.582;2024-02-04T01:53:29;100078.69;;;12.72;57.96
78488;BME280;67885;49.758;9.582;2024-02-04T01:55:59;100070.84;;;12.71;57.98
78488;BME280;67885;49.758;9.582;2024-02-04T01:58:26;100077.34;;;12.67;57.68
78488;BME280;67885;49.758;9.582;2024-02-04T02:00:52;100081.81;;;12.66;58.46
78488;BME280;67885;49.758;9.582;2024-02-04T02:03:21;100083.63;;;12.65;57.80
78488;BME280;67885;49.758;9.582;2024-02-04T02:05:48;100080.13;;;12.65;58.01
78488;BME280;67885;49.758;9.582;2024-02-04T02:08:16;100073.84;;;12.66;58.11
78488;BME280;67885;49.758;9.582;2024-02-04T02:10:46;100080.25;;;12.63;58.29
78488;BME280;67885;49.758;9.582;2024-02-04T02:13:17;100083.97;;;12.61;58.36
78488;BME280;67885;49.758;9.582;2024-02-04T02:15:51;100089.91;;;12.64;58.29
78488;BME280;67885;49.758;9.582;2024-02-04T02:18:25;100084.59;;;12.64;58.37
78488;BME280;67885;49.758;9.582;2024-02-04T02:21:13;100078.31;;;12.65;57.64
78488;BME280;67885;49.758;9.582;2024-02-04T02:23:48;100088.22;;;12.63;58.17
78488;BME280;67885;49.758;9.582;2024-02-04T02:26:20;100091.94;;;12.61;57.65
78488;BME280;67885;49.758;9.582;2024-02-04T02:28:48;100091.94;;;12.61;58.08
78488;BME280;67885;49.758;9.582;2024-02-04T02:31:15;100090.25;;;12.60;57.98
78488;BME280;67885;49.758;9.582;2024-02-04T02:33:41;100084.22;;;12.58;57.69
78488;BME280;67885;49.758;9.582;2024-02-04T02:36:16;100076.34;;;12.56;59.04
78488;BME280;67885;49.758;9.582;2024-02-04T02:38:51;100087.81;;;12.57;58.79
78488;BME280;67885;49.758;9.582;2024-02-04T02:41:20;100087.81;;;12.57;58.31
78488;BME280;67885;49.758;9.582;2024-02-04T02:43:51;100092.41;;;12.55;58.79
78488;BME280;67885;49.758;9.582;2024-02-04T02:46:18;100081.66;;;12.56;58.45
78488;BME280;67885;49.758;9.582;2024-02-04T02:48:45;100089.38;;;12.48;58.84
78488;BME280;67885;49.758;9.582;2024-02-04T02:51:12;100083.19;;;12.47;58.38
78488;BME280;67885;49.758;9.582;2024-02-04T02:53:38;100092.84;;;12.48;58.61
78488;BME280;67885;49.758;9.582;2024-02-04T02:56:05;100065.31;;;12.25;58.88
78488;BME280;67885;49.758;9.582;2024-02-04T02:58:33;100082.91;;;12.39;58.95
78488;BME280;67885;49.758;9.582;2024-02-04T03:01:00;100086.84;;;12.34;60.44
78488;BME280;67885;49.758;9.582;2024-02-04T03:03:27;100077.66;;;12.26;60.50
78488;BME280;67885;49.758;9.582;2024-02-04T03:05:53;100074.13;;;12.26;61.03
78488;BME280;67885;49.758;9.582;2024-02-04T03:08:20;100070.88;;;12.22;60.90
78488;BME280;67885;49.758;9.582;2024-02-04T03:10:46;100080.97;;;12.17;61.57
78488;BME280;67885;49.758;9.582;2024-02-04T03:13:13;100077.81;;;12.12;60.92
78488;BME280;67885;49.758;9.582;2024-02-04T03:15:41;100083.22;;;12.10;61.49
78488;BME280;67885;49.758;9.582;2024-02-04T03:18:08;100072.72;;;12.09;61.35
78488;BME280;67885;49.758;9.582;2024-02-04T03:20:34;100068.00;;;12.12;61.40
78488;BME280;67885;49.758;9.582;2024-02-04T03:23:01;100066.34;;;12.11;61.50
78488;BME280;67885;49.758;9.582;2024-02-04T03:25:27;100068.25;;;12.09;61.75
78488;BME280;67885;49.758;9.582;2024-02-04T03:27:54;100063.56;;;12.13;61.15
78488;BME280;67885;49.758;9.582;2024-02-04T03:30:21;100066.00;;;12.16;61.72
78488;BME280;67885;49.758;9.582;2024-02-04T03:32:49;100039.38;;;12.05;61.38
78488;BME280;67885;49.758;9.582;2024-02-04T03:35:15;100067.03;;;12.26;61.36
78488;BME280;67885;49.758;9.582;2024-02-04T03:37:42;100061.47;;;12.29;61.38
78488;BME280;67885;49.758;9.582;2024-02-04T03:40:10;100068.38;;;12.32;59.86
78488;BME280;67885;49.758;9.582;2024-02-04T03:42:36;100061.25;;;12.32;60.02
78488;BME280;67885;49.758;9.582;2024-02-04T03:45:04;100063.38;;;12.27;60.28
78488;BME280;67885;49.758;9.582;2024-02-04T03:47:31;100066.91;;;12.28;60.28
78488;BME280;67885;49.758;9.582;2024-02-04T03:49:59;100064.97;;;12.30;59.66
78488;BME280;67885;49.758;9.582;2024-02-04T03:52:25;100062.22;;;12.31;59.58
78488;BME280;67885;49.758;9.582;2024-02-04T03:54:52;100069.22;;;12.32;59.63
78488;BME280;67885;49.758;9.582;2024-02-04T03:57:18;100059.56;;;12.31;60.30
78488;BME280;67885;49.758;9.582;2024-02-04T03:59:45;100066.69;;;12.31;60.57
78488;BME280;67885;49.758;9.582;2024-02-04T04:02:12;100062.97;;;12.34;59.99
78488;BME280;67885;49.758;9.582;2024-02-04T04:04:39;100070.56;;;12.38;60.71
78488;BME280;67885;49.758;9.582;2024-02-04T04:07:08;100061.66;;;12.39;60.06
78488;BME280;67885;49.758;9.582;2024-02-04T04:09:34;100046.53;;;12.40;60.62
78488;BME280;67885;49.758;9.582;2024-02-04T04:12:01;100052.72;;;12.40;60.51
78488;BME280;67885;49.758;9.582;2024-02-04T04:14:28;100051.03;;;12.39;60.54
78488;BME280;67885;49.758;9.582;2024-02-04T04:16:54;100059.09;;;12.38;60.67
78488;BME280;67885;49.758;9.582;2024-02-04T04:19:21;100053.78;;;12.38;60.90
78488;BME280;67885;49.758;9.582;2024-02-04T04:21:47;100051.97;;;12.38;60.69
78488;BME280;67885;49.758;9.582;2024-02-04T04:24:15;100047.53;;;12.39;60.83
78488;BME280;67885;49.758;9.582;2024-02-04T04:26:45;100043.88;;;12.40;60.92
78488;BME280;67885;49.758;9.582;2024-02-04T04:29:11;100055.25;;;12.42;60.92
78488;BME280;67885;49.758;9.582;2024-02-04T04:31:38;100049.00;;;12.43;60.60
78488;BME280;67885;49.758;9.582;2024-02-04T04:34:05;100055.03;;;12.45;59.73
78488;BME280;67885;49.758;9.582;2024-02-04T04:36:32;100060.22;;;12.46;60.05
78488;BME280;67885;49.758;9.582;2024-02-04T04:38:58;100057.47;;;12.48;60.41
78488;BME280;67885;49.758;9.582;2024-02-04T04:41:26;100056.72;;;12.46;59.73
78488;BME280;67885;49.758;9.582;2024-02-04T04:43:53;100056.72;;;12.46;60.45
78488;BME280;67885;49.758;9.582;2024-02-04T04:46:19;100067.34;;;12.46;59.97
78488;BME280;67885;49.758;9.582;2024-02-04T04:48:46;100049.44;;;12.37;60.63
78488;BME280;67885;49.758;9.582;2024-02-04T04:51:13;100056.84;;;12.44;60.24
78488;BME280;67885;49.758;9.582;2024-02-04T04:53:39;100066.41;;;12.47;60.39
78488;BME280;67885;49.758;9.582;2024-02-04T04:56:06;100073.41;;;12.48;60.93
78488;BME280;67885;49.758;9.582;2024-02-04T04:58:34;100072.44;;;12.49;59.75
78488;BME280;67885;49.758;9.582;2024-02-04T05:01:01;100071.72;;;12.47;60.74
78488;BME280;67885;49.758;9.582;2024-02-04T05:03:28;100070.13;;;12.44;60.31
78488;BME280;67885;49.758;9.582;2024-02-04T05:05:54;100051.53;;;12.44;60.92
78488;BME280;67885;49.758;9.582;2024-02-04T05:08:21;100056.72;;;12.46;60.36
78488;BME280;67885;49.758;9.582;2024-02-04T05:10:47;100049.59;;;12.46;60.37
78488;BME280;67885;49.758;9.582;2024-02-04T05:13:14;100052.16;;;12.48;59.80
78488;BME280;67885;49.758;9.582;2024-02-04T05:15:42;100061.94;;;12.47;60.12
78488;BME280;67885;49.758;9.582;2024-02-04T05:18:08;100062.28;;;12.43;59.53
78488;BME280;67885;49.758;9.582;2024-02-04T05:20:35;100065.13;;;12.40;60.72
78488;BME280;67885;49.758;9.582;2024-02-04T05:23:02;100067.78;;;12.40;60.30
78488;BME280;67885;49.758;9.582;2024-02-04T05:25:28;100061.75;;;12.38;60.27
78488;BME280;67885;49.758;9.582;2024-02-04T05:27:55;100061.13;;;12.34;59.94
78488;BME280;67885;49.758;9.582;2024-02-04T05:30:21;100060.31;;;12.34;60.58
78488;BME280;67885;49.758;9.582;2024-02-04T05:32:49;100059.47;;;12.33;60.49
78488;BME280;67885;49.758;9.582;2024-02-04T05:35:16;100053.41;;;12.31;60.57
78488;BME280;67885;49.758;9.582;2024-02-04T05:37:42;100039.28;;;12.30;60.25
78488;BME280;67885;49.758;9.582;2024-02-04T05:40:10;100039.41;;;12.29;60.10
78488;BME280;67885;49.758;9.582;2024-02-04T05:42:37;100041.94;;;12.30;60.02
78488;BME280;67885;49.758;9.582;2024-02-04T05:45:04;100034.81;;;12.31;60.05
78488;BME280;67885;49.758;9.582;2024-02-04T05:47:32;100031.09;;;12.34;60.10
78488;BME280;67885;49.758;9.582;2024-02-04T05:50:00;100039.16;;;12.32;59.58
78488;BME280;67885;49.758;9.582;2024-02-04T05:52:26;100036.50;;;12.32;60.17
78488;BME280;67885;49.758;9.582;2024-02-04T05:54:53;100021.66;;;12.29;60.08
78488;BME280;67885;49.758;9.582;2024-02-04T05:57:19;100014.00;;;12.25;60.06
78488;BME280;67885;49.758;9.582;2024-02-04T05:59:46;100019.94;;;12.28;59.50
78488;BME280;67885;49.758;9.582;2024-02-04T06:02:13;100033.47;;;12.25;60.24
78488;BME280;67885;49.758;9.582;2024-02-04T06:04:40;100020.28;;;12.24;60.10
78488;BME280;67885;49.758;9.582;2024-02-04T06:07:08;100024.63;;;12.25;59.87
78488;BME280;67885;49.758;9.582;2024-02-04T06:09:35;100031.75;;;12.24;60.55
78488;BME280;67885;49.758;9.582;2024-02-04T06:12:01;100025.59;;;12.24;59.93
78488;BME280;67885;49.758;9.582;2024-02-04T06:14:33;100036.34;;;12.22;60.62
78488;BME280;67885;49.758;9.582;2024-02-04T06:16:59;100039.84;;;12.23;59.93
78488;BME280;67885;49.758;9.582;2024-02-04T06:19:26;100038.88;;;12.24;59.77
78488;BME280;67885;49.758;9.582;2024-02-04T06:21:52;100025.03;;;12.07;59.83
78488;BME280;67885;49.758;9.582;2024-02-04T06:24:20;100022.59;;;12.04;59.97
78488;BME280;67885;49.758;9.582;2024-02-04T06:26:47;100036.06;;;12.14;59.92
78488;BME280;67885;49.758;9.582;2024-02-04T06:29:13;100043.41;;;12.10;60.19
78488;BME280;67885;49.758;9.582;2024-02-04T06:31:44;100041.47;;;12.12;60.28
78488;BME280;67885;49.758;9.582;2024-02-04T06:34:10;100047.53;;;12.14;60.48
78488;BME280;67885;49.758;9.582;2024-02-04T06:36:37;100048.25;;;12.17;60.57
78488;BME280;67885;49.758;9.582;2024-02-04T06:39:03;100038.38;;;12.19;60.98
78488;BME280;67885;49.758;9.582;2024-02-04T06:41:33;100031.25;;;12.19;60.03
78488;BME280;67885;49.758;9.582;2024-02-04T06:44:00;100021.69;;;12.17;60.20
78488;BME280;67885;49.758;9.582;2024-02-04T06:46:27;100013.84;;;12.15;60.65
78488;BME280;67885;49.758;9.582;2024-02-04T06:48:54;100027.47;;;12.10;60.63
78488;BME280;67885;49.758;9.582;2024-02-04T06:51:21;100024.81;;;12.10;60.59
78488;BME280;67885;49.758;9.582;2024-02-04T06:53:47;100017.28;;;12.04;60.91
78488;BME280;67885;49.758;9.582;2024-02-04T06:56:14;100036.94;;;12.02;61.15
78488;BME280;67885;49.758;9.582;2024-02-04T06:58:43;100015.69;;;12.02;61.75
78488;BME280;67885;49.758;9.582;2024-02-04T07:01:10;100008.91;;;11.97;61.05
78488;BME280;67885;49.758;9.582;2024-02-04T07:03:37;100021.34;;;11.97;61.50
78488;BME280;67885;49.758;9.582;2024-02-04T07:06:04;100014.34;;;11.96;60.99
78488;BME280;67885;49.758;9.582;2024-02-04T07:08:31;100015.84;;;11.87;61.21
78488;BME280;67885;49.758;9.582;2024-02-04T07:10:58;100018.16;;;11.92;61.31
78488;BME280;67885;49.758;9.582;2024-02-04T07:13:24;100010.94;;;11.94;61.33
78488;BME280;67885;49.758;9.582;2024-02-04T07:15:52;99998.09;;;12.01;61.51
78488;BME280;67885;49.758;9.582;2024-02-04T07:18:19;99997.97;;;12.02;60.52
78488;BME280;67885;49.758;9.582;2024-02-04T07:20:47;99998.81;;;12.03;60.63
78488;BME280;67885;49.758;9.582;2024-02-04T07:23:14;100005.31;;;11.98;60.79
78488;BME280;67885;49.758;9.582;2024-02-04T07:25:41;100004.75;;;11.93;61.49
78488;BME280;67885;49.758;9.582;2024-02-04T07:28:08;100006.38;;;11.96;61.35
78488;BME280;67885;49.758;9.582;2024-02-04T07:30:34;100001.09;;;11.83;61.34
78488;BME280;67885;49.758;9.582;2024-02-04T07:33:03;100018.50;;;11.87;61.17
78488;BME280;67885;49.758;9.582;2024-02-04T07:35:29;100017.75;;;11.85;61.74
78488;BME280;67885;49.758;9.582;2024-02-04T07:37:56;100015.31;;;11.82;61.34
78488;BME280;67885;49.758;9.582;2024-02-04T07:40:23;100017.84;;;11.84;61.58
78488;BME280;67885;49.758;9.582;2024-02-04T07:42:49;100009.78;;;11.85;62.22
78488;BME280;67885;49.758;9.582;2024-02-04T07:45:16;100025.69;;;11.85;61.42
78488;BME280;67885;49.758;9.582;2024-02-04T07:47:42;100028.81;;;11.79;62.48
78488;BME280;67885;49.758;9.582;2024-02-04T07:50:10;100042.81;;;11.81;62.17
78488;BME280;67885;49.758;9.582;2024-02-04T07:52:37;100050.53;;;11.84;62.13
78488;BME280;67885;49.758;9.582;2024-02-04T07:55:04;100047.69;;;11.87;62.49
78488;BME280;67885;49.758;9.582;2024-02-04T07:57:30;100035.88;;;11.91;61.89
78488;BME280;67885;49.758;9.582;2024-02-04T07:59:57;100030.59;;;11.91;62.30
78488;BME280;67885;49.758;9.582;2024-02-04T08:02:23;100029.63;;;11.92;62.21
78488;BME280;67885;49.758;9.582;2024-02-04T08:04:50;100009.22;;;11.93;62.26
78488;BME280;67885;49.758;9.582;2024-02-04T08:07:18;100016.34;;;11.92;62.39
78488;BME280;67885;49.758;9.582;2024-02-04T08:09:46;100008.72;;;11.88;62.39
78488;BME280;67885;49.758;9.582;2024-02-04T08:12:12;100012.44;;;11.85;62.55
78488;BME280;67885;49.758;9.582;2024-02-04T08:14:39;100008.06;;;11.84;62.94
78488;BME280;67885;49.758;9.582;2024-02-04T08:17:05;100002.78;;;11.84;62.28
78488;BME280;67885;49.758;9.582;2024-02-04T08:19:32;100007.88;;;11.87;63.34
78488;BME280;67885;49.758;9.582;2024-02-04T08:21:58;100012.94;;;11.90;62.32
78488;BME280;67885;49.758;9.582;2024-02-04T08:24:27;100032.94;;;11.96;63.37
78488;BME280;67885;49.758;9.582;2024-02-04T08:26:55;100018.25;;;12.03;62.69
78488;BME280;67885;49.758;9.582;2024-02-04T08:29:21;100011.84;;;12.06;62.12
78488;BME280;67885;49.758;9.582;2024-02-04T08:31:48;100016.44;;;12.04;62.19
78488;BME280;67885;49.758;9.582;2024-02-04T08:34:14;100023.47;;;12.05;61.59
78488;BME280;67885;49.758;9.582;2024-02-04T08:36:41;100024.28;;;12.05;61.42
78488;BME280;67885;49.758;9.582;2024-02-04T08:39:08;100022.72;;;12.03;61.73
78488;BME280;67885;49.758;9.582;2024-02-04T08:41:36;100018.16;;;12.05;61.77
78488;BME280;67885;49.758;9.582;2024-02-04T08:44:02;100017.69;;;12.11;61.48
78488;BME280;67885;49.758;9.582;2024-02-04T08:46:29;100019.38;;;12.12;61.61
78488;BME280;67885;49.758;9.582;2024-02-04T08:48:56;100021.41;;;12.08;62.10
78488;BME280;67885;49.758;9.582;2024-02-04T08:51:22;100022.28;;;12.09;61.47
78488;BME280;67885;49.758;9.582;2024-02-04T08:53:49;100026.72;;;12.08;61.66
78488;BME280;67885;49.758;9.582;2024-02-04T08:56:15;99989.91;;;11.91;62.19
78488;BME280;67885;49.758;9.582;2024-02-04T08:58:45;100021.22;;;12.11;61.07
78488;BME280;67885;49.758;9.582;2024-02-04T09:01:11;100030.25;;;12.09;61.42
78488;BME280;67885;49.758;9.582;2024-02-04T09:03:38;100027.47;;;12.10;60.98
78488;BME280;67885;49.758;9.582;2024-02-04T09:06:05;100030.84;;;12.12;62.08
78488;BME280;67885;49.758;9.582;2024-02-04T09:08:31;100033.41;;;12.14;61.45
78488;BME280;67885;49.758;9.582;2024-02-04T09:10:58;100027.88;;;12.17;62.36
78488;BME280;67885;49.758;9.582;2024-02-04T09:13:24;100042.94;;;12.17;61.86
78488;BME280;67885;49.758;9.582;2024-02-04T09:15:52;100018.88;;;12.07;61.63
78488;BME280;67885;49.758;9.582;2024-02-04T09:18:20;100032.44;;;12.15;62.44
78488;BME280;67885;49.758;9.582;2024-02-04T09:20:46;100034.13;;;12.16;61.32
78488;BME280;67885;49.758;9.582;2024-02-04T09:23:13;100035.59;;;12.20;62.14
78488;BME280;67885;49.758;9.582;2024-02-04T09:25:40;100029.34;;;12.21;60.75
78488;BME280;67885;49.758;9.582;2024-02-04T09:28:06;100029.09;;;12.24;60.89
78488;BME280;67885;49.758;9.582;2024-02-04T09:30:33;100027.19;;;12.26;61.72
78488;BME280;67885;49.758;9.582;2024-02-04T09:33:01;100031.53;;;12.27;61.33
78488;BME280;67885;49.758;9.582;2024-02-04T09:35:27;100028.78;;;12.29;62.13
78488;BME280;67885;49.758;9.582;2024-02-04T09:37:54;100026.97;;;12.29;61.31
78488;BME280;67885;49.758;9.582;2024-02-04T09:40:22;100032.38;;;12.28;61.13
78488;BME280;67885;49.758;9.582;2024-02-04T09:42:48;100027.19;;;12.26;60.53
78488;BME280;67885;49.758;9.582;2024-02-04T09:45:18;100030.56;;;12.28;61.12
78488;BME280;67885;49.758;9.582;2024-02-04T09:47:44;100025.03;;;12.31;60.71
78488;BME280;67885;49.758;9.582;2024-02-04T09:50:13;100017.91;;;12.32;60.17
78488;BME280;67885;49.758;9.582;2024-02-04T09:52:40;100020.56;;;12.32;59.93
78488;BME280;67885;49.758;9.582;2024-02-04T09:55:10;100014.41;;;12.31;60.15
78488;BME280;67885;49.758;9.582;2024-02-04T09:57:39;99987.81;;;12.20;60.68
78488;BME280;67885;49.758;9.582;2024-02-04T10:00:06;99996.78;;;12.30;60.74
78488;BME280;67885;49.758;9.582;2024-02-04T10:02:34;99985.19;;;12.31;60.10
78488;BME280;67885;49.758;9.582;2024-02-04T10:05:00;99983.28;;;12.34;60.93
78488;BME280;67885;49.758;9.582;2024-02-04T10:07:30;99992.06;;;12.34;60.21
78488;BME280;67885;49.758;9.582;2024-02-04T10:09:56;99998.97;;;12.37;60.80
78488;BME280;67885;49.758;9.582;2024-02-04T10:12:23;99995.88;;;12.43;61.05
78488;BME280;67885;49.758;9.582;2024-02-04T10:14:49;99958.97;;;12.27;60.28
78488;BME280;67885;49.758;9.582;2024-02-04T10:17:16;99998.78;;;12.51;59.38
78488;BME280;67885;49.758;9.582;2024-02-04T10:19:46;100012.06;;;12.51;59.27
78488;BME280;67885;49.758;9.582;2024-02-04T10:22:13;100006.75;;;12.51;59.69
78488;BME280;67885;49.758;9.582;2024-02-04T10:24:43;99991.06;;;12.48;59.86
78488;BME280;67885;49.758;9.582;2024-02-04T10:27:12;99969.25;;;12.31;59.94
78488;BME280;67885;49.758;9.582;2024-02-04T10:29:39;99988.41;;;12.48;60.21
78488;BME280;67885;49.758;9.582;2024-02-04T10:32:06;99995.38;;;12.49;60.53
78488;BME280;67885;49.758;9.582;2024-02-04T10:34:37;99940.63;;;12.24;60.39
78488;BME280;67885;49.758;9.582;2024-02-04T10:37:03;99979.38;;;12.62;59.43
78488;BME280;67885;49.758;9.582;2024-02-04T10:39:30;99983.50;;;12.66;59.72
78488;BME280;67885;49.758;9.582;2024-02-04T10:42:02;99987.38;;;12.73;59.78
78488;BME280;67885;49.758;9.582;2024-02-04T10:44:34;99987.75;;;12.80;59.36
78488;BME280;67885;49.758;9.582;2024-02-04T10:47:05;99984.25;;;12.91;60.06
78488;BME280;67885;49.758;9.582;2024-02-04T10:49:33;99986.91;;;12.91;59.09
78488;BME280;67885;49.758;9.582;2024-02-04T10:52:06;99981.34;;;12.94;59.34
78488;BME280;67885;49.758;9.582;2024-02-04T10:54:36;99976.78;;;12.96;58.13
78488;BME280;67885;49.758;9.582;2024-02-04T10:57:12;99972.78;;;12.90;58.15
78488;BME280;67885;49.758;9.582;2024-02-04T10:59:39;99961.06;;;12.93;58.54
78488;BME280;67885;49.758;9.582;2024-02-04T11:02:06;99962.28;;;13.00;58.37
78488;BME280;67885;49.758;9.582;2024-02-04T11:04:34;99962.91;;;13.04;58.96
78488;BME280;67885;49.758;9.582;2024-02-04T11:07:03;99923.81;;;12.81;58.10
78488;BME280;67885;49.758;9.582;2024-02-04T11:09:31;99948.03;;;13.01;58.29
78488;BME280;67885;49.758;9.582;2024-02-04T11:11:59;99943.06;;;12.96;57.99
78488;BME280;67885;49.758;9.582;2024-02-04T11:14:31;99947.16;;;12.89;58.32
78488;BME280;67885;49.758;9.582;2024-02-04T11:17:19;99950.44;;;12.93;58.38
78488;BME280;67885;49.758;9.582;2024-02-04T11:20:03;99935.31;;;12.93;58.53
78488;BME280;67885;49.758;9.582;2024-02-04T11:25:45;99928.31;;;12.92;57.55
78488;BME280;67885;49.758;9.582;2024-02-04T11:28:15;99921.19;;;12.93;57.91
78488;BME280;67885;49.758;9.582;2024-02-04T11:30:44;99915.75;;;12.94;57.35
78488;BME280;67885;49.758;9.582;2024-02-04T11:33:12;99920.47;;;12.91;57.67
78488;BME280;67885;49.758;9.582;2024-02-04T11:35:39;99915.25;;;12.89;57.75
78488;BME280;67885;49.758;9.582;2024-02-04T11:38:06;99915.13;;;12.91;57.87
78488;BME280;67885;49.758;9.582;2024-02-04T11:40:35;99906.53;;;12.87;58.28
78488;BME280;67885;49.758;9.582;2024-02-04T11:43:06;99903.66;;;12.90;57.40
78488;BME280;67885;49.758;9.582;2024-02-04T11:45:33;99901.97;;;12.89;57.49
78488;BME280;67885;49.758;9.582;2024-02-04T11:48:06;99905.34;;;12.91;57.98
78488;BME280;67885;49.758;9.582;2024-02-04T11:50:34;99887.72;;;12.90;57.92
78488;BME280;67885;49.758;9.582;2024-02-04T11:53:08;99890.75;;;12.97;58.70
78488;BME280;67885;49.758;9.582;2024-02-04T11:55:36;99878.03;;;12.89;57.65
78488;BME280;67885;49.758;9.582;2024-02-04T11:58:05;99892.91;;;12.92;57.94
78488;BME280;67885;49.758;9.582;2024-02-04T12:00:32;99906.34;;;12.90;57.88
78488;BME280;67885;49.758;9.582;2024-02-04T12:03:00;99904.00;;;12.86;57.35
78488;BME280;67885;49.758;9.582;2024-02-04T12:05:30;99899.91;;;12.81;57.86
78488;BME280;67885;49.758;9.582;2024-02-04T12:07:57;99908.00;;;12.80;57.71
78488;BME280;67885;49.758;9.582;2024-02-04T12:10:26;99910.41;;;12.83;58.02
78488;BME280;67885;49.758;9.582;2024-02-04T12:12:53;99900.03;;;12.80;57.91
78488;BME280;67885;49.758;9.582;2024-02-04T12:15:19;99905.72;;;12.87;58.15
78488;BME280;67885;49.758;9.582;2024-02-04T12:17:47;99828.34;;;12.22;57.37
78488;BME280;67885;49.758;9.582;2024-02-04T12:20:13;99905.34;;;12.91;57.56
78488;BME280;67885;49.758;9.582;2024-02-04T12:22:41;99900.16;;;12.90;57.44
78488;BME280;67885;49.758;9.582;2024-02-04T12:25:08;99893.16;;;12.89;57.26
78488;BME280;67885;49.758;9.582;2024-02-04T12:27:35;99888.69;;;12.89;57.40
78488;BME280;67885;49.758;9.582;2024-02-04T12:30:03;99880.56;;;12.91;57.40
78488;BME280;67885;49.758;9.582;2024-02-04T12:32:30;99899.19;;;12.91;57.34
78488;BME280;67885;49.758;9.582;2024-02-04T12:34:57;99894.69;;;12.91;57.62
78488;BME280;67885;49.758;9.582;2024-02-04T12:37:23;99863.56;;;12.82;57.86
78488;BME280;67885;49.758;9.582;2024-02-04T12:39:53;99879.88;;;12.89;57.74
78488;BME280;67885;49.758;9.582;2024-02-04T12:42:20;99873.69;;;12.88;58.13
78488;BME280;67885;49.758;9.582;2024-02-04T12:44:47;99862.22;;;12.88;57.71
78488;BME280;67885;49.758;9.582;2024-02-04T12:47:18;99877.69;;;12.82;58.10
78488;BME280;67885;49.758;9.582;2024-02-04T12:49:45;99815.09;;;12.44;57.70
78488;BME280;67885;49.758;9.582;2024-02-04T12:52:12;99866.34;;;12.80;58.24
78488;BME280;67885;49.758;9.582;2024-02-04T12:54:42;99860.16;;;12.80;58.35
78488;BME280;67885;49.758;9.582;2024-02-04T12:57:13;99857.38;;;12.81;58.07